sensor_id;sensor_type;location;lat;lon;timestamp;pressure;altitude;pressure_sealevel;temperature;humidity
27294;BME280;14785;52.556;13.430;2022-08-07T00:01:05;101781.94;;;19.98;100.00
27294;BME280;14785;52.556;13.430;2022-08-07T00:03:31;101775.50;;;19.99;100.00
27294;BME280;14785;52.556;13.430;2022-08-07T00:05:56;101776.72;;;19.82;100.00
27294;BME280;14785;52.556;13.430;2022-08-07T00:08:22;101777.28;;;19.92;100.00
27294;BME280;14785;52.556;13.430;2022-08-07T00:10:48;101769.66;;;19.81;100.00
27294;BME280;14785;52.556;13.430;2022-08-07T00:13:15;101777.50;;;19.76;100.00
27294;BME280;14785;52.556;13.430;2022-08-07T00:15:40;101780.84;;;19.78;100.00
27294;BME280;14785;52.556;13.430;2022-08-07T00:18:06;101786.53;;;19.68;100.00
27294;BME280;14785;52.556;13.430;2022-08-07T00:20:33;101778.94;;;19.57;100.00
27294;BME280;14785;52.556;13.430;2022-08-07T00:22:59;101787.78;;;19.37;100.00
27294;BME280;14785;52.556;13.430;2022-08-07T00:25:24;101790.84;;;19.34;100.00
27294;BME280;14785;52.556;13.430;2022-08-07T00:27:50;101787.69;;;19.30;100.00
27294;BME280;14785;52.556;13.430;2022-08-07T00:30:16;101791.75;;;19.26;100.00
27294;BME280;14785;52.556;13.430;2022-08-07T00:32:42;101783.06;;;19.16;100.00
27294;BME280;14785;52.556;13.430;2022-08-07T00:35:07;101775.81;;;19.17;100.00
27294;BME280;14785;52.556;13.430;2022-08-07T00:37:33;101779.25;;;19.11;100.00
27294;BME280;14785;52.556;13.430;2022-08-07T00:39:58;101775.63;;;19.04;100.00
27294;BME280;14785;52.556;13.430;2022-08-07T00:42:23;101776.69;;;19.17;100.00
27294;BME280;14785;52.556;13.430;2022-08-07T00:44:49;101771.72;;;19.21;100.00
27294;BME280;14785;52.556;13.430;2022-08-07T00:47:14;101773.06;;;19.25;100.00
27294;BME280;14785;52.556;13.430;2022-08-07T00:49:39;101772.22;;;19.39;100.00
27294;BME280;14785;52.556;13.430;2022-08-07T00:52:06;101766.66;;;19.40;100.00
27294;BME280;14785;52.556;13.430;2022-08-07T00:54:31;101772.53;;;19.44;100.00
27294;BME280;14785;52.556;13.430;2022-08-07T00:56:57;101767.13;;;19.44;100.00
27294;BME280;14785;52.556;13.430;2022-08-07T00:59:22;101768.97;;;19.29;100.00
27294;BME280;14785;52.556;13.430;2022-08-07T01:01:48;101766.94;;;19.31;100.00
27294;BME280;14785;52.556;13.430;2022-08-07T01:04:15;101774.91;;;19.10;100.00
27294;BME280;14785;52.556;13.430;2022-08-07T01:06:41;101772.03;;;19.26;100.00
27294;BME280;14785;52.556;13.430;2022-08-07T01:09:06;101772.03;;;19.11;100.00
27294;BME280;14785;52.556;13.430;2022-08-07T01:11:32;101771.53;;;19.08;100.00
27294;BME280;14785;52.556;13.430;2022-08-07T01:13:58;101772.84;;;19.12;100.00
27294;BME280;14785;52.556;13.430;2022-08-07T01:16:24;101773.41;;;19.22;100.00
27294;BME280;14785;52.556;13.430;2022-08-07T01:18:50;101776.69;;;19.17;100.00
27294;BME280;14785;52.556;13.430;2022-08-07T01:21:17;101770.34;;;19.25;100.00
27294;BME280;14785;52.556;13.430;2022-08-07T01:23:44;101768.59;;;19.17;100.00
27294;BME280;14785;52.556;13.430;2022-08-07T01:26:12;101765.16;;;19.23;100.00
27294;BME280;14785;52.556;13.430;2022-08-07T01:28:40;101772.47;;;19.15;100.00
27294;BME280;14785;52.556;13.430;2022-08-07T01:31:06;101766.44;;;19.13;100.00
27294;BME280;14785;52.556;13.430;2022-08-07T01:33:32;101771.00;;;19.12;100.00
27294;BME280;14785;52.556;13.430;2022-08-07T01:35:58;101767.44;;;19.12;100.00
27294;BME280;14785;52.556;13.430;2022-08-07T01:38:27;101754.81;;;18.98;100.00
27294;BME280;14785;52.556;13.430;2022-08-07T01:40:53;101763.63;;;19.06;100.00
27294;BME280;14785;52.556;13.430;2022-08-07T01:43:19;101759.59;;;18.87;100.00
27294;BME280;14785;52.556;13.430;2022-08-07T01:45:45;101764.06;;;18.80;100.00
27294;BME280;14785;52.556;13.430;2022-08-07T01:48:11;101767.25;;;18.84;100.00
27294;BME280;14785;52.556;13.430;2022-08-07T01:50:37;101766.31;;;18.91;100.00
27294;BME280;14785;52.556;13.430;2022-08-07T01:53:04;101769.44;;;18.80;100.00
27294;BME280;14785;52.556;13.430;2022-08-07T01:55:36;101776.16;;;18.84;100.00
27294;BME280;14785;52.556;13.430;2022-08-07T01:58:07;101768.88;;;18.70;100.00
27294;BME280;14785;52.556;13.430;2022-08-07T02:00:35;101771.63;;;18.62;100.00
27294;BME280;14785;52.556;13.430;2022-08-07T02:03:06;101775.19;;;18.63;100.00
27294;BME280;14785;52.556;13.430;2022-08-07T02:05:38;101775.50;;;18.45;100.00
27294;BME280;14785;52.556;13.430;2022-08-07T02:08:09;101780.84;;;18.23;100.00
27294;BME280;14785;52.556;13.430;2022-08-07T02:10:36;101782.38;;;18.17;100.00
27294;BME280;14785;52.556;13.430;2022-08-07T02:13:03;101780.72;;;18.16;100.00
27294;BME280;14785;52.556;13.430;2022-08-07T02:15:30;101781.78;;;18.07;100.00
27294;BME280;14785;52.556;13.430;2022-08-07T02:17:57;101776.03;;;18.10;100.00
27294;BME280;14785;52.556;13.430;2022-08-07T02:20:24;101768.69;;;18.27;100.00
27294;BME280;14785;52.556;13.430;2022-08-07T02:22:52;101774.19;;;18.11;100.00
27294;BME280;14785;52.556;13.430;2022-08-07T02:25:20;101772.56;;;18.02;100.00
27294;BME280;14785;52.556;13.430;2022-08-07T02:27:48;101770.53;;;18.04;100.00
27294;BME280;14785;52.556;13.430;2022-08-07T02:30:14;101771.97;;;18.14;100.00
27294;BME280;14785;52.556;13.430;2022-08-07T02:32:40;101781.28;;;18.04;100.00
27294;BME280;14785;52.556;13.430;2022-08-07T02:35:07;101775.09;;;18.03;100.00
27294;BME280;14785;52.556;13.430;2022-08-07T02:37:35;101772.41;;;18.03;100.00
27294;BME280;14785;52.556;13.430;2022-08-07T02:40:04;101768.84;;;18.03;100.00
27294;BME280;14785;52.556;13.430;2022-08-07T02:42:31;101776.97;;;17.95;100.00
27294;BME280;14785;52.556;13.430;2022-08-07T02:44:59;101770.59;;;17.96;100.00
27294;BME280;14785;52.556;13.430;2022-08-07T02:47:25;101776.50;;;17.91;100.00
27294;BME280;14785;52.556;13.430;2022-08-07T02:49:51;101773.47;;;17.94;100.00
27294;BME280;14785;52.556;13.430;2022-08-07T02:52:22;101773.84;;;17.83;100.00
27294;BME280;14785;52.556;13.430;2022-08-07T02:54:49;101771.91;;;18.00;100.00
27294;BME280;14785;52.556;13.430;2022-08-07T02:57:17;101766.34;;;18.01;100.00
27294;BME280;14785;52.556;13.430;2022-08-07T02:59:46;101767.97;;;18.10;100.00
27294;BME280;14785;52.556;13.430;2022-08-07T03:02:15;101769.44;;;18.13;100.00
27294;BME280;14785;52.556;13.430;2022-08-07T03:04:42;101769.41;;;17.90;100.00
27294;BME280;14785;52.556;13.430;2022-08-07T03:07:08;101764.34;;;17.95;100.00
27294;BME280;14785;52.556;13.430;2022-08-07T03:09:34;101764.41;;;17.87;100.00
27294;BME280;14785;52.556;13.430;2022-08-07T03:12:01;101774.00;;;17.90;100.00
27294;BME280;14785;52.556;13.430;2022-08-07T03:14:27;101767.50;;;17.76;100.00
27294;BME280;14785;52.556;13.430;2022-08-07T03:16:55;101766.09;;;17.88;100.00
27294;BME280;14785;52.556;13.430;2022-08-07T03:19:20;101760.22;;;17.85;100.00
27294;BME280;14785;52.556;13.430;2022-08-07T03:21:47;101773.53;;;17.78;100.00
27294;BME280;14785;52.556;13.430;2022-08-07T03:24:13;101772.28;;;17.89;100.00
27294;BME280;14785;52.556;13.430;2022-08-07T03:26:39;101770.41;;;17.97;100.00
27294;BME280;14785;52.556;13.430;2022-08-07T03:29:05;101776.72;;;18.12;100.00
27294;BME280;14785;52.556;13.430;2022-08-07T03:31:32;101774.72;;;18.06;100.00
27294;BME280;14785;52.556;13.430;2022-08-07T03:34:00;101778.03;;;17.86;100.00
27294;BME280;14785;52.556;13.430;2022-08-07T03:36:28;101777.31;;;17.92;100.00
27294;BME280;14785;52.556;13.430;2022-08-07T03:38:58;101769.75;;;17.95;100.00
27294;BME280;14785;52.556;13.430;2022-08-07T03:41:27;101779.84;;;17.93;100.00
27294;BME280;14785;52.556;13.430;2022-08-07T03:43:53;101778.38;;;17.83;100.00
27294;BME280;14785;52.556;13.430;2022-08-07T03:46:20;101780.28;;;17.74;100.00
27294;BME280;14785;52.556;13.430;2022-08-07T03:48:47;101780.38;;;17.58;100.00
27294;BME280;14785;52.556;13.430;2022-08-07T03:51:13;101780.97;;;17.68;100.00
27294;BME280;14785;52.556;13.430;2022-08-07T03:53:39;101780.09;;;17.45;100.00
27294;BME280;14785;52.556;13.430;2022-08-07T03:56:05;101779.00;;;17.54;100.00
27294;BME280;14785;52.556;13.430;2022-08-07T03:58:32;101782.66;;;17.69;100.00
27294;BME280;14785;52.556;13.430;2022-08-07T04:00:58;101787.47;;;17.82;100.00
27294;BME280;14785;52.556;13.430;2022-08-07T04:03:24;101784.06;;;17.96;100.00
27294;BME280;14785;52.556;13.430;2022-08-07T04:05:49;101787.63;;;17.88;100.00
27294;BME280;14785;52.556;13.430;2022-08-07T04:08:15;101779.09;;;17.77;100.00
27294;BME280;14785;52.556;13.430;2022-08-07T04:10:41;101789.97;;;17.91;100.00
27294;BME280;14785;52.556;13.430;2022-08-07T04:13:10;101784.59;;;17.83;100.00
27294;BME280;14785;52.556;13.430;2022-08-07T04:15:36;101781.53;;;17.94;100.00
27294;BME280;14785;52.556;13.430;2022-08-07T04:18:05;101785.88;;;17.95;100.00
27294;BME280;14785;52.556;13.430;2022-08-07T04:20:31;101779.63;;;18.03;100.00
27294;BME280;14785;52.556;13.430;2022-08-07T04:22:57;101780.13;;;18.06;100.00
27294;BME280;14785;52.556;13.430;2022-08-07T04:25:24;101780.47;;;18.03;100.00
27294;BME280;14785;52.556;13.430;2022-08-07T04:27:50;101778.41;;;18.05;100.00
27294;BME280;14785;52.556;13.430;2022-08-07T04:30:15;101787.16;;;18.07;100.00
27294;BME280;14785;52.556;13.430;2022-08-07T04:32:41;101782.38;;;18.17;100.00
27294;BME280;14785;52.556;13.430;2022-08-07T04:35:07;101777.84;;;18.18;100.00
27294;BME280;14785;52.556;13.430;2022-08-07T04:37:34;101781.22;;;18.20;100.00
27294;BME280;14785;52.556;13.430;2022-08-07T04:40:00;101785.78;;;18.11;100.00
27294;BME280;14785;52.556;13.430;2022-08-07T04:42:26;101787.13;;;18.15;100.00
27294;BME280;14785;52.556;13.430;2022-08-07T04:44:56;101789.41;;;18.26;100.00
27294;BME280;14785;52.556;13.430;2022-08-07T04:47:42;101788.41;;;18.27;100.00
27294;BME280;14785;52.556;13.430;2022-08-07T04:50:24;101788.03;;;18.30;100.00
27294;BME280;14785;52.556;13.430;2022-08-07T04:53:11;101791.28;;;18.26;100.00
27294;BME280;14785;52.556;13.430;2022-08-07T04:55:51;101800.84;;;18.28;100.00
27294;BME280;14785;52.556;13.430;2022-08-07T04:58:39;101800.97;;;18.35;100.00
27294;BME280;14785;52.556;13.430;2022-08-07T05:01:33;101804.19;;;18.30;100.00
27294;BME280;14785;52.556;13.430;2022-08-07T05:04:07;101800.34;;;18.25;100.00
27294;BME280;14785;52.556;13.430;2022-08-07T05:06:43;101798.47;;;18.33;100.00
27294;BME280;14785;52.556;13.430;2022-08-07T05:09:28;101801.78;;;18.35;100.00
27294;BME280;14785;52.556;13.430;2022-08-07T05:11:59;101787.94;;;18.46;100.00
27294;BME280;14785;52.556;13.430;2022-08-07T05:14:32;101792.63;;;18.52;100.00
27294;BME280;14785;52.556;13.430;2022-08-07T05:17:02;101790.91;;;18.51;100.00
27294;BME280;14785;52.556;13.430;2022-08-07T05:19:35;101793.06;;;18.56;100.00
27294;BME280;14785;52.556;13.430;2022-08-07T05:22:02;101794.50;;;18.66;100.00
27294;BME280;14785;52.556;13.430;2022-08-07T05:24:29;101798.44;;;18.78;100.00
27294;BME280;14785;52.556;13.430;2022-08-07T05:26:57;101801.38;;;18.91;100.00
27294;BME280;14785;52.556;13.430;2022-08-07T05:29:24;101787.97;;;18.98;100.00
27294;BME280;14785;52.556;13.430;2022-08-07T05:31:51;101800.53;;;19.06;100.00
27294;BME280;14785;52.556;13.430;2022-08-07T05:34:18;101801.75;;;19.03;100.00
27294;BME280;14785;52.556;13.430;2022-08-07T05:36:54;101804.28;;;19.05;100.00
27294;BME280;14785;52.556;13.430;2022-08-07T05:39:21;101798.22;;;19.02;100.00
27294;BME280;14785;52.556;13.430;2022-08-07T05:41:48;101803.16;;;19.14;100.00
27294;BME280;14785;52.556;13.430;2022-08-07T05:44:14;101804.09;;;19.21;100.00
27294;BME280;14785;52.556;13.430;2022-08-07T05:46:41;101805.44;;;19.25;100.00
27294;BME280;14785;52.556;13.430;2022-08-07T05:49:08;101810.19;;;19.37;100.00
27294;BME280;14785;52.556;13.430;2022-08-07T05:51:35;101806.56;;;19.45;100.00
27294;BME280;14785;52.556;13.430;2022-08-07T05:54:01;101811.50;;;19.56;100.00
27294;BME280;14785;52.556;13.430;2022-08-07T05:56:28;101813.16;;;19.57;100.00
27294;BME280;14785;52.556;13.430;2022-08-07T05:58:55;101804.03;;;19.58;100.00
27294;BME280;14785;52.556;13.430;2022-08-07T06:01:25;101800.50;;;19.72;100.00
27294;BME280;14785;52.556;13.430;2022-08-07T06:03:53;101812.13;;;19.87;100.00
27294;BME280;14785;52.556;13.430;2022-08-07T06:06:20;101814.16;;;19.85;100.00
27294;BME280;14785;52.556;13.430;2022-08-07T06:08:46;101815.63;;;20.02;100.00
27294;BME280;14785;52.556;13.430;2022-08-07T06:11:12;101817.63;;;19.93;100.00
27294;BME280;14785;52.556;13.430;2022-08-07T06:13:37;101814.50;;;20.11;100.00
27294;BME280;14785;52.556;13.430;2022-08-07T06:16:05;101813.38;;;20.20;100.00
27294;BME280;14785;52.556;13.430;2022-08-07T06:18:32;101815.09;;;19.92;100.00
27294;BME280;14785;52.556;13.430;2022-08-07T06:21:02;101815.25;;;20.05;100.00
27294;BME280;14785;52.556;13.430;2022-08-07T06:23:29;101811.97;;;20.09;100.00
27294;BME280;14785;52.556;13.430;2022-08-07T06:25:55;101814.16;;;19.85;100.00
27294;BME280;14785;52.556;13.430;2022-08-07T06:28:21;101822.63;;;19.96;100.00
27294;BME280;14785;52.556;13.430;2022-08-07T06:30:47;101814.16;;;19.99;100.00
27294;BME280;14785;52.556;13.430;2022-08-07T06:33:12;101815.09;;;19.92;100.00
27294;BME280;14785;52.556;13.430;2022-08-07T06:35:38;101813.91;;;20.30;100.00
27294;BME280;14785;52.556;13.430;2022-08-07T06:38:03;101816.94;;;20.20;100.00
27294;BME280;14785;52.556;13.430;2022-08-07T06:40:36;101810.97;;;20.25;100.00
27294;BME280;14785;52.556;13.430;2022-08-07T06:43:05;101819.81;;;20.82;100.00
27294;BME280;14785;52.556;13.430;2022-08-07T06:45:33;101822.22;;;20.70;100.00
27294;BME280;14785;52.556;13.430;2022-08-07T06:47:59;101826.28;;;21.02;100.00
27294;BME280;14785;52.556;13.430;2022-08-07T06:50:26;101834.69;;;20.29;100.00
27294;BME280;14785;52.556;13.430;2022-08-07T06:52:53;101826.78;;;20.70;100.00
27294;BME280;14785;52.556;13.430;2022-08-07T06:55:25;101825.50;;;20.66;100.00
27294;BME280;14785;52.556;13.430;2022-08-07T06:57:52;101819.81;;;20.82;100.00
27294;BME280;14785;52.556;13.430;2022-08-07T07:00:19;101820.75;;;20.47;100.00
27294;BME280;14785;52.556;13.430;2022-08-07T07:02:46;101825.75;;;20.71;100.00
27294;BME280;14785;52.556;13.430;2022-08-07T07:05:12;101830.25;;;21.06;100.00
27294;BME280;14785;52.556;13.430;2022-08-07T07:07:38;101825.22;;;20.82;100.00
27294;BME280;14785;52.556;13.430;2022-08-07T07:10:04;101827.41;;;20.93;100.00
27294;BME280;14785;52.556;13.430;2022-08-07T07:12:37;101830.81;;;20.95;100.00
27294;BME280;14785;52.556;13.430;2022-08-07T07:15:09;101823.97;;;21.27;100.00
27294;BME280;14785;52.556;13.430;2022-08-07T07:17:42;101817.97;;;21.31;100.00
27294;BME280;14785;52.556;13.430;2022-08-07T07:20:14;101825.84;;;21.26;100.00
27294;BME280;14785;52.556;13.430;2022-08-07T07:22:41;101824.09;;;21.46;100.00
27294;BME280;14785;52.556;13.430;2022-08-07T07:25:08;101827.03;;;21.51;100.00
27294;BME280;14785;52.556;13.430;2022-08-07T07:27:39;101829.97;;;21.56;100.00
27294;BME280;14785;52.556;13.430;2022-08-07T07:32:53;101822.25;;;21.87;100.00
27294;BME280;14785;52.556;13.430;2022-08-07T07:35:21;101824.09;;;21.87;100.00
27294;BME280;14785;52.556;13.430;2022-08-07T07:37:48;101820.41;;;21.60;100.00
27294;BME280;14785;52.556;13.430;2022-08-07T07:40:16;101814.59;;;21.63;100.00
27294;BME280;14785;52.556;13.430;2022-08-07T07:42:43;101815.16;;;21.86;100.00
27294;BME280;14785;52.556;13.430;2022-08-07T07:45:11;101813.03;;;21.75;100.00
27294;BME280;14785;52.556;13.430;2022-08-07T07:47:40;101818.34;;;21.62;100.00
27294;BME280;14785;52.556;13.430;2022-08-07T07:50:08;101805.09;;;21.06;100.00
27294;BME280;14785;52.556;13.430;2022-08-07T07:52:36;101808.06;;;21.51;100.00
27294;BME280;14785;52.556;13.430;2022-08-07T07:55:06;101806.59;;;21.49;100.00
27294;BME280;14785;52.556;13.430;2022-08-07T07:57:33;101806.06;;;21.66;100.00
27294;BME280;14785;52.556;13.430;2022-08-07T08:00:00;101800.03;;;21.30;100.00
27294;BME280;14785;52.556;13.430;2022-08-07T08:02:27;101799.31;;;21.15;100.00
27294;BME280;14785;52.556;13.430;2022-08-07T08:04:54;101792.94;;;20.95;100.00
27294;BME280;14785;52.556;13.430;2022-08-07T08:07:20;101785.94;;;21.07;100.00
27294;BME280;14785;52.556;13.430;2022-08-07T08:09:48;101794.28;;;21.40;100.00
27294;BME280;14785;52.556;13.430;2022-08-07T08:12:15;101795.72;;;21.42;100.00
27294;BME280;14785;52.556;13.430;2022-08-07T08:14:40;101790.88;;;21.65;100.00
27294;BME280;14785;52.556;13.430;2022-08-07T08:17:08;101793.03;;;21.42;100.00
27294;BME280;14785;52.556;13.430;2022-08-07T08:19:36;101790.69;;;21.73;100.00
27294;BME280;14785;52.556;13.430;2022-08-07T08:22:04;101785.13;;;21.81;100.00
27294;BME280;14785;52.556;13.430;2022-08-07T08:24:51;101789.34;;;21.90;100.00
27294;BME280;14785;52.556;13.430;2022-08-07T08:27:37;101787.84;;;21.47;100.00
27294;BME280;14785;52.556;13.430;2022-08-07T08:30:06;101786.84;;;21.55;100.00
27294;BME280;14785;52.556;13.430;2022-08-07T08:32:36;101790.75;;;21.80;100.00
27294;BME280;14785;52.556;13.430;2022-08-07T08:35:03;101787.06;;;22.00;100.00
27294;BME280;14785;52.556;13.430;2022-08-07T08:37:30;101781.84;;;21.92;100.00
27294;BME280;14785;52.556;13.430;2022-08-07T08:39:59;101787.81;;;22.41;100.00
27294;BME280;14785;52.556;13.430;2022-08-07T08:42:30;101782.34;;;22.22;100.00
27294;BME280;14785;52.556;13.430;2022-08-07T08:45:11;101779.03;;;22.26;100.00
27294;BME280;14785;52.556;13.430;2022-08-07T08:50:57;101774.50;;;22.86;96.14
27294;BME280;14785;52.556;13.430;2022-08-07T08:56:11;101774.47;;;21.39;100.00
27294;BME280;14785;52.556;13.430;2022-08-07T08:58:51;101771.34;;;21.36;100.00
27294;BME280;14785;52.556;13.430;2022-08-07T09:01:23;101766.19;;;21.88;99.88
27294;BME280;14785;52.556;13.430;2022-08-07T09:04:29;101769.41;;;21.70;99.87
27294;BME280;14785;52.556;13.430;2022-08-07T09:07:06;101772.03;;;21.91;98.21
27294;BME280;14785;52.556;13.430;2022-08-07T09:15:16;101762.16;;;23.16;91.52
27294;BME280;14785;52.556;13.430;2022-08-07T09:18:10;101761.44;;;23.59;89.69
27294;BME280;14785;52.556;13.430;2022-08-07T09:26:23;101758.13;;;24.32;83.42
27294;BME280;14785;52.556;13.430;2022-08-07T09:28:54;101753.84;;;24.50;85.12
27294;BME280;14785;52.556;13.430;2022-08-07T09:36:32;101753.69;;;24.07;87.03
27294;BME280;14785;52.556;13.430;2022-08-07T09:41:45;101741.63;;;24.59;83.03
27294;BME280;14785;52.556;13.430;2022-08-07T09:52:29;101737.69;;;25.04;82.21
27294;BME280;14785;52.556;13.430;2022-08-07T09:58:13;101739.03;;;24.70;81.13
27294;BME280;14785;52.556;13.430;2022-08-07T10:03:48;101731.25;;;24.18;79.98
27294;BME280;14785;52.556;13.430;2022-08-07T10:09:17;101730.69;;;24.65;84.42
27294;BME280;14785;52.556;13.430;2022-08-07T10:12:11;101722.31;;;24.91;78.47
27294;BME280;14785;52.556;13.430;2022-08-07T10:17:38;101711.59;;;24.96;76.13
27294;BME280;14785;52.556;13.430;2022-08-07T10:21:06;101709.34;;;25.11;73.35
27294;BME280;14785;52.556;13.430;2022-08-07T10:35:02;101693.34;;;27.32;62.33
27294;BME280;14785;52.556;13.430;2022-08-07T10:38:01;101696.78;;;28.23;59.09
27294;BME280;14785;52.556;13.430;2022-08-07T10:40:37;101691.50;;;28.33;57.02
27294;BME280;14785;52.556;13.430;2022-08-07T10:45:46;101689.53;;;29.16;47.91
27294;BME280;14785;52.556;13.430;2022-08-07T10:48:24;101683.56;;;29.41;44.58
27294;BME280;14785;52.556;13.430;2022-08-07T10:51:21;101692.53;;;30.33;46.32
27294;BME280;14785;52.556;13.430;2022-08-07T10:54:01;101679.47;;;30.81;48.71
27294;BME280;14785;52.556;13.430;2022-08-07T10:56:58;101679.34;;;31.08;50.24
27294;BME280;14785;52.556;13.430;2022-08-07T11:00:04;101684.47;;;30.53;55.94
27294;BME280;14785;52.556;13.430;2022-08-07T11:02:36;101672.00;;;31.23;45.84
27294;BME280;14785;52.556;13.430;2022-08-07T11:10:56;101674.22;;;32.48;45.71
27294;BME280;14785;52.556;13.430;2022-08-07T11:13:46;101672.53;;;32.77;39.28
27294;BME280;14785;52.556;13.430;2022-08-07T11:16:22;101663.72;;;32.95;39.11
27294;BME280;14785;52.556;13.430;2022-08-07T11:19:13;101665.75;;;33.34;48.71
27294;BME280;14785;52.556;13.430;2022-08-07T11:21:49;101662.72;;;33.35;33.62
27294;BME280;14785;52.556;13.430;2022-08-07T11:24:24;101646.09;;;32.76;39.78
27294;BME280;14785;52.556;13.430;2022-08-07T11:27:00;101646.38;;;32.05;60.25
27294;BME280;14785;52.556;13.430;2022-08-07T11:29:37;101651.41;;;30.38;40.66
27294;BME280;14785;52.556;13.430;2022-08-07T11:35:03;101651.31;;;29.05;56.85
27294;BME280;14785;52.556;13.430;2022-08-07T11:43:01;101629.38;;;25.06;75.00
27294;BME280;14785;52.556;13.430;2022-08-07T11:49:01;101641.09;;;27.17;66.37
27294;BME280;14785;52.556;13.430;2022-08-07T11:57:27;101623.91;;;25.71;68.75
27294;BME280;14785;52.556;13.430;2022-08-07T12:00:14;101626.44;;;26.72;87.14
27294;BME280;14785;52.556;13.430;2022-08-07T12:03:01;101619.59;;;27.20;77.07
27294;BME280;14785;52.556;13.430;2022-08-07T12:08:31;101617.22;;;27.12;73.59
27294;BME280;14785;52.556;13.430;2022-08-07T12:11:15;101606.44;;;27.45;73.39
27294;BME280;14785;52.556;13.430;2022-08-07T12:13:41;101610.06;;;27.62;56.73
27294;BME280;14785;52.556;13.430;2022-08-07T12:16:18;101601.78;;;27.74;56.70
27294;BME280;14785;52.556;13.430;2022-08-07T12:18:50;101609.66;;;28.15;78.67
27294;BME280;14785;52.556;13.430;2022-08-07T12:29:06;101601.63;;;29.01;61.44
27294;BME280;14785;52.556;13.430;2022-08-07T12:34:10;101597.66;;;29.09;63.23
27294;BME280;14785;52.556;13.430;2022-08-07T12:36:37;101591.97;;;29.15;60.95
27294;BME280;14785;52.556;13.430;2022-08-07T12:39:04;101590.25;;;28.50;66.22
27294;BME280;14785;52.556;13.430;2022-08-07T12:41:34;101591.16;;;27.89;53.84
27294;BME280;14785;52.556;13.430;2022-08-07T12:44:04;101582.59;;;28.35;67.38
27294;BME280;14785;52.556;13.430;2022-08-07T12:46:42;101580.88;;;28.29;60.73
27294;BME280;14785;52.556;13.430;2022-08-07T12:52:03;101583.66;;;28.67;72.03
27294;BME280;14785;52.556;13.430;2022-08-07T12:54:34;101582.25;;;28.86;53.36
27294;BME280;14785;52.556;13.430;2022-08-07T12:57:05;101579.38;;;29.94;53.73
27294;BME280;14785;52.556;13.430;2022-08-07T12:59:32;101571.22;;;30.77;55.15
27294;BME280;14785;52.556;13.430;2022-08-07T13:10:52;101567.53;;;33.43;30.47
27294;BME280;14785;52.556;13.430;2022-08-07T13:16:14;101566.78;;;33.27;30.69
27294;BME280;14785;52.556;13.430;2022-08-07T13:19:05;101563.47;;;31.41;35.44
27294;BME280;14785;52.556;13.430;2022-08-07T13:21:37;101555.28;;;27.01;46.17
27294;BME280;14785;52.556;13.430;2022-08-07T13:27:09;101555.81;;;28.54;49.56
27294;BME280;14785;52.556;13.430;2022-08-07T13:29:43;101541.56;;;30.38;52.83
27294;BME280;14785;52.556;13.430;2022-08-07T13:32:28;101543.16;;;32.22;38.03
27294;BME280;14785;52.556;13.430;2022-08-07T13:35:09;101551.00;;;33.33;33.23
27294;BME280;14785;52.556;13.430;2022-08-07T13:37:52;101556.91;;;33.65;31.66
27294;BME280;14785;52.556;13.430;2022-08-07T13:40:26;101550.19;;;33.37;33.01
27294;BME280;14785;52.556;13.430;2022-08-07T13:42:58;101542.72;;;33.33;32.61
27294;BME280;14785;52.556;13.430;2022-08-07T13:45:27;101546.59;;;33.75;32.16
27294;BME280;14785;52.556;13.430;2022-08-07T13:47:54;101533.28;;;33.87;33.23
27294;BME280;14785;52.556;13.430;2022-08-07T13:50:23;101532.16;;;33.83;32.78
27294;BME280;14785;52.556;13.430;2022-08-07T13:52:50;101530.75;;;33.08;32.61
27294;BME280;14785;52.556;13.430;2022-08-07T13:55:19;101525.72;;;33.21;39.04
27294;BME280;14785;52.556;13.430;2022-08-07T13:57:49;101518.59;;;29.76;38.70
27294;BME280;14785;52.556;13.430;2022-08-07T14:00:16;101509.88;;;29.84;39.48
27294;BME280;14785;52.556;13.430;2022-08-07T14:02:45;101517.22;;;28.98;50.16
27294;BME280;14785;52.556;13.430;2022-08-07T14:05:13;101515.44;;;29.09;57.77
27294;BME280;14785;52.556;13.430;2022-08-07T14:07:48;101505.88;;;30.38;47.92
27294;BME280;14785;52.556;13.430;2022-08-07T14:10:14;101514.16;;;28.52;43.87
27294;BME280;14785;52.556;13.430;2022-08-07T14:12:56;101507.78;;;28.46;47.41
27294;BME280;14785;52.556;13.430;2022-08-07T14:15:31;101518.09;;;29.04;46.18
27294;BME280;14785;52.556;13.430;2022-08-07T14:18:15;101502.69;;;29.78;48.18
27294;BME280;14785;52.556;13.430;2022-08-07T14:20:46;101504.34;;;31.59;47.68
27294;BME280;14785;52.556;13.430;2022-08-07T14:23:18;101507.94;;;31.64;32.25
27294;BME280;14785;52.556;13.430;2022-08-07T14:25:46;101501.81;;;31.27;36.73
27294;BME280;14785;52.556;13.430;2022-08-07T14:28:19;101506.56;;;32.95;36.73
27294;BME280;14785;52.556;13.430;2022-08-07T14:30:46;101507.44;;;33.30;37.85
27294;BME280;14785;52.556;13.430;2022-08-07T14:33:17;101489.00;;;34.21;28.77
27294;BME280;14785;52.556;13.430;2022-08-07T14:35:44;101500.59;;;34.70;35.71
27294;BME280;14785;52.556;13.430;2022-08-07T14:38:09;101494.91;;;33.81;27.44
27294;BME280;14785;52.556;13.430;2022-08-07T14:40:38;101499.00;;;33.55;27.24
27294;BME280;14785;52.556;13.430;2022-08-07T14:43:07;101496.97;;;32.88;30.24
27294;BME280;14785;52.556;13.430;2022-08-07T14:45:48;101490.44;;;32.64;35.35